KISP/ISP METAR and TAF weather

Enter ICAO airport designator
Station Type Date Time Source
KISP METAR 2022/11/27 08:56 UTC NOAA

KISP 270856Z 00000KT 10SM CLR 06/M01 A2992 RMK AO2 SLP131 T00561011 58009


Station Type Date Time Source
KISP Decoded METAR 2022/11/27 08:56 UTC NOAA

ISLIP LONG ISLAND MAC ART, NY, United States (KISP) 40-48N 073-06W 43M
Nov 27, 2022 - 03:56 AM EST / 2022.11.27 0856 UTC
Wind: Calm:0
Visibility: 10 mile(s):0
Sky conditions: clear
Temperature: 42.1 F (5.6 C)
Dew Point: 30.0 F (-1.1 C)
Relative Humidity: 61%
Pressure (altimeter): 29.92 in. Hg (1013 hPa)
Pressure tendency: 0.03 inches (0.9 hPa) lower than three hours ago
ob: KISP 270856Z 00000KT 10SM CLR 06/M01 A2992 RMK AO2 SLP131 T00561011 58009
cycle: 9

Station Type Date Time Source
KISP TAF 2022/11/27 09:58 UTC NOAA

TAF
AMD KISP 270857Z 2709/2806 25006KT P6SM SCT250
FM271200 22007KT P6SM SCT120 BKN250
FM271600 20010KT P6SM SCT050 BKN120
TEMPO 2716/2719 3SM -SHRA BKN035
FM271900 18010G19KT 3SM -RA BR BKN009 OVC040
FM272200 16012G25KT 1 1/2SM RA BR OVC007 WS020/23050KT
FM280300 25012G27KT P6SM BKN025

Example: see airport list